createdAt,value
2022-08-04T03:47:53.953Z,23.30
2022-08-04T03:50:32.900Z,23.30
2022-08-04T03:53:15.586Z,23.30
2022-08-04T03:56:00.666Z,23.30
2022-08-04T03:58:48.391Z,23.20
2022-08-04T04:02:01.558Z,23.20
2022-08-04T04:04:26.868Z,23.20
2022-08-04T04:07:05.807Z,23.10
2022-08-04T04:09:40.164Z,23.10
2022-08-04T04:12:38.278Z,23.00
2022-08-04T04:15:14.628Z,23.10
2022-08-04T04:17:41.614Z,23.10
2022-08-04T04:20:14.437Z,23.00
2022-08-04T04:22:50.247Z,23.10
2022-08-04T04:25:36.472Z,23.10
2022-08-04T04:28:45.692Z,23.10
2022-08-04T04:31:02.423Z,23.10
2022-08-04T04:33:35.226Z,23.10
2022-08-04T04:36:20.838Z,23.10
2022-08-04T04:38:57.525Z,23.10
2022-08-04T04:41:54.979Z,23.10
2022-08-04T04:44:51.388Z,23.10
2022-08-04T04:47:43.183Z,23.00
2022-08-04T04:50:20.265Z,23.00
2022-08-04T04:52:55.139Z,23.10
2022-08-04T04:55:24.533Z,23.20
2022-08-04T04:57:53.853Z,23.20
2022-08-04T05:00:23.834Z,23.20
2022-08-04T05:03:00.680Z,23.30
2022-08-04T05:05:34.691Z,23.30
2022-08-04T05:08:42.932Z,23.40
2022-08-04T05:10:57.497Z,23.40
2022-08-04T05:14:34.915Z,23.40
2022-08-04T05:16:31.346Z,23.50
2022-08-04T05:19:06.040Z,23.50
2022-08-04T05:21:49.738Z,23.40
2022-08-04T05:24:18.929Z,23.50
2022-08-04T05:26:47.389Z,23.50
2022-08-04T05:29:20.041Z,23.50
2022-08-04T05:31:49.876Z,23.50
2022-08-04T05:34:21.972Z,23.50
2022-08-04T05:36:54.242Z,23.60
2022-08-04T05:39:23.306Z,23.60
2022-08-04T05:41:55.120Z,23.60
2022-08-04T05:44:23.662Z,23.60
2022-08-04T05:46:54.917Z,23.70
2022-08-04T05:49:22.998Z,23.70
2022-08-04T05:51:50.517Z,23.80
2022-08-04T05:54:18.411Z,23.90
2022-08-04T05:56:45.794Z,23.90
2022-08-04T05:59:13.474Z,23.90
2022-08-04T06:01:55.698Z,24.00
2022-08-04T06:04:25.067Z,24.00
2022-08-04T06:06:52.612Z,24.10
2022-08-04T06:09:19.658Z,24.20
2022-08-04T06:12:00.584Z,24.20
2022-08-04T06:14:37.910Z,24.30
2022-08-04T06:17:06.316Z,24.40
2022-08-04T06:20:00.736Z,24.50
2022-08-04T06:22:42.961Z,24.50
2022-08-04T06:25:13.861Z,24.70
2022-08-04T06:27:41.719Z,24.70
2022-08-04T06:30:14.127Z,24.90
2022-08-04T06:32:47.977Z,24.90
2022-08-04T06:35:18.289Z,25.00
2022-08-04T06:37:46.342Z,25.10
2022-08-04T06:40:16.752Z,25.20
2022-08-04T06:42:57.706Z,25.30
2022-08-04T06:45:25.037Z,25.40
2022-08-04T06:47:53.462Z,25.50
2022-08-04T06:51:25.896Z,25.50
2022-08-04T06:53:07.850Z,25.60
2022-08-04T06:55:35.225Z,25.70
2022-08-04T06:58:03.455Z,25.70
2022-08-04T07:00:31.953Z,25.80
2022-08-04T07:02:59.396Z,25.90
2022-08-04T07:05:26.595Z,25.90
2022-08-04T07:07:57.350Z,26.00
2022-08-04T07:10:27.992Z,26.10
2022-08-04T07:12:56.684Z,26.10
2022-08-04T07:15:24.417Z,26.20
2022-08-04T07:17:52.079Z,26.20
2022-08-04T07:20:30.512Z,26.30
2022-08-04T07:23:03.767Z,26.30
2022-08-04T07:26:00.754Z,26.30
2022-08-04T07:28:19.194Z,26.40
2022-08-04T07:30:47.150Z,26.40
2022-08-04T07:33:14.830Z,26.50
2022-08-04T07:36:04.640Z,26.60
2022-08-04T07:38:29.529Z,26.60
2022-08-04T07:40:56.634Z,26.70
2022-08-04T07:43:23.785Z,26.70
2022-08-04T07:45:50.806Z,26.80
2022-08-04T07:48:18.967Z,26.80
2022-08-04T07:50:46.756Z,26.90
2022-08-04T07:53:54.009Z,27.00
2022-08-04T07:56:01.611Z,27.00
2022-08-04T07:58:30.196Z,27.10
2022-08-04T08:00:58.038Z,27.20
2022-08-04T08:03:25.482Z,27.20
2022-08-04T08:06:18.206Z,27.20
2022-08-04T08:08:40.039Z,27.30
2022-08-04T08:11:07.837Z,27.40
2022-08-04T08:13:35.427Z,27.40
2022-08-04T08:16:02.998Z,27.50
2022-08-04T08:18:30.457Z,27.50
2022-08-04T08:20:57.978Z,27.60
2022-08-04T08:23:25.940Z,27.70
2022-08-04T08:25:53.011Z,27.80
2022-08-04T08:28:20.049Z,27.90
2022-08-04T08:30:52.719Z,27.90
2022-08-04T08:33:20.683Z,27.90
2022-08-04T08:35:53.473Z,28.00
2022-08-04T08:38:28.732Z,28.10
2022-08-04T08:41:18.245Z,28.10
2022-08-04T08:44:06.938Z,28.20
2022-08-04T08:46:48.778Z,28.20
2022-08-04T08:50:00.308Z,28.30
2022-08-04T08:52:14.941Z,28.30
2022-08-04T08:55:22.149Z,28.30
2022-08-04T08:58:05.409Z,28.40
2022-08-04T09:00:51.050Z,28.40
2022-08-04T09:03:35.538Z,28.40
2022-08-04T09:06:21.006Z,28.40
2022-08-04T09:09:00.002Z,28.60
2022-08-04T09:11:28.942Z,28.60
2022-08-04T09:13:57.262Z,28.70
2022-08-04T09:16:33.452Z,28.80
2022-08-04T09:19:10.466Z,28.90
2022-08-04T09:22:14.394Z,29.00
2022-08-04T09:24:50.720Z,29.00
2022-08-04T09:27:24.543Z,29.00
2022-08-04T09:30:08.146Z,29.20
2022-08-04T09:32:56.938Z,29.20
2022-08-04T09:35:26.855Z,29.30
2022-08-04T09:37:56.628Z,29.30
2022-08-04T09:40:31.211Z,29.40
2022-08-04T09:43:57.170Z,29.30
2022-08-04T09:46:38.086Z,29.30
2022-08-04T09:49:13.242Z,29.40
2022-08-04T09:51:58.629Z,29.40
2022-08-04T09:54:41.686Z,29.50
2022-08-04T09:57:27.517Z,29.60
2022-08-04T10:00:01.771Z,29.60
2022-08-04T10:02:32.200Z,29.70
2022-08-04T10:05:02.402Z,29.80
2022-08-04T10:07:32.138Z,29.90
2022-08-04T10:10:17.753Z,29.90
2022-08-04T10:12:56.743Z,29.90
2022-08-04T10:15:35.914Z,29.90
2022-08-04T10:18:09.020Z,30.00
2022-08-04T10:20:44.913Z,30.10
2022-08-04T10:23:17.520Z,30.20
2022-08-04T10:26:07.290Z,30.30
2022-08-04T10:28:43.446Z,30.30
2022-08-04T10:31:13.332Z,30.30
2022-08-04T10:33:47.051Z,30.40
2022-08-04T10:36:17.625Z,30.50
2022-08-04T10:38:59.985Z,30.40
2022-08-04T10:41:37.306Z,30.50
2022-08-04T10:44:24.626Z,30.50
2022-08-04T10:46:54.462Z,30.50
2022-08-04T10:49:39.959Z,30.50
2022-08-04T10:52:07.030Z,30.60
2022-08-04T10:54:48.204Z,30.60
2022-08-04T10:57:20.919Z,30.70
2022-08-04T10:59:53.916Z,30.90
2022-08-04T11:02:30.287Z,30.90
2022-08-04T11:05:17.992Z,31.00
2022-08-04T11:07:45.805Z,31.20
2022-08-04T11:10:13.166Z,31.20
2022-08-04T11:12:42.719Z,31.30
2022-08-04T11:15:12.205Z,31.40
2022-08-04T11:17:41.750Z,31.40
2022-08-04T11:20:38.374Z,31.50
2022-08-04T11:23:09.818Z,31.50
2022-08-04T11:25:52.358Z,31.50
2022-08-04T11:28:25.369Z,31.50
2022-08-04T11:31:11.099Z,31.50
2022-08-04T11:33:44.401Z,31.50
2022-08-04T11:36:20.373Z,31.60
2022-08-04T11:38:57.063Z,31.70
2022-08-04T11:41:35.494Z,31.70
2022-08-04T11:44:10.418Z,31.80
2022-08-04T11:46:40.982Z,31.80
2022-08-04T11:49:11.892Z,31.90
2022-08-04T11:51:39.684Z,31.90
2022-08-04T11:54:07.257Z,32.00
2022-08-04T11:56:36.461Z,32.00
2022-08-04T11:59:05.094Z,32.00
2022-08-04T12:01:38.372Z,32.10
2022-08-04T12:04:14.126Z,32.10
2022-08-04T12:07:21.787Z,32.10
2022-08-04T12:10:06.340Z,32.10
2022-08-04T12:12:43.774Z,32.20
2022-08-04T12:15:12.674Z,32.20
2022-08-04T12:17:53.409Z,32.30
2022-08-04T12:20:40.719Z,32.40
2022-08-04T12:23:14.946Z,32.40
2022-08-04T12:25:45.296Z,32.40
2022-08-04T12:28:15.782Z,32.50
2022-08-04T12:30:57.922Z,32.50
2022-08-04T12:34:03.522Z,32.60
2022-08-04T12:36:29.803Z,32.70
2022-08-04T12:39:03.308Z,32.80
2022-08-04T12:41:35.988Z,32.80
2022-08-04T12:44:07.667Z,32.90
2022-08-04T12:46:55.036Z,32.90
2022-08-04T12:49:44.054Z,33.00
2022-08-04T12:52:20.577Z,33.00
2022-08-04T12:54:51.887Z,33.00
2022-08-04T12:57:20.153Z,33.00
2022-08-04T12:59:48.063Z,33.00
2022-08-04T13:02:27.100Z,33.00
2022-08-04T13:04:55.258Z,33.10
2022-08-04T13:07:25.279Z,33.10
2022-08-04T13:09:53.408Z,33.10
2022-08-04T13:12:31.854Z,33.10
2022-08-04T13:15:09.937Z,33.10
2022-08-04T13:17:52.156Z,33.20
2022-08-04T13:20:32.482Z,33.30
2022-08-04T13:23:05.860Z,33.50
2022-08-04T13:26:43.532Z,33.70
2022-08-04T13:28:28.230Z,33.70
2022-08-04T13:30:57.150Z,33.80
2022-08-04T13:33:29.425Z,33.90
2022-08-04T13:35:56.982Z,34.00
2022-08-04T13:38:24.342Z,34.00
2022-08-04T13:40:52.063Z,34.00
2022-08-04T13:44:15.888Z,33.90
2022-08-04T13:46:14.018Z,33.90
2022-08-04T13:49:23.687Z,33.90
2022-08-04T13:51:57.290Z,34.00
2022-08-04T13:54:27.237Z,34.00
2022-08-04T13:56:59.955Z,33.90
2022-08-04T13:59:33.258Z,33.90
2022-08-04T14:02:02.820Z,33.90
2022-08-04T14:04:31.963Z,34.00
2022-08-04T14:07:02.539Z,34.00
2022-08-04T14:09:35.205Z,33.90
2022-08-04T14:12:38.065Z,33.90
2022-08-04T14:15:00.046Z,33.90
2022-08-04T14:17:29.880Z,33.90
2022-08-04T14:19:59.080Z,33.80
2022-08-04T14:22:26.046Z,33.90
2022-08-04T14:24:55.855Z,33.90
2022-08-04T14:27:23.187Z,34.00
2022-08-04T14:29:50.387Z,34.10
2022-08-04T14:32:22.913Z,34.20
2022-08-04T14:34:53.049Z,34.30
2022-08-04T14:37:22.458Z,34.40
2022-08-04T14:40:19.040Z,34.40
2022-08-04T14:42:41.999Z,34.50
2022-08-04T14:45:09.325Z,34.40
2022-08-04T14:47:51.862Z,34.50
2022-08-04T14:50:20.456Z,34.50
2022-08-04T14:52:47.484Z,34.60
2022-08-04T14:55:18.650Z,34.60
2022-08-04T14:58:35.009Z,34.60
2022-08-04T15:00:34.528Z,34.60
2022-08-04T15:03:03.961Z,34.50
2022-08-04T15:06:02.008Z,34.50
2022-08-04T15:08:18.629Z,34.50
2022-08-04T15:10:45.725Z,34.40
2022-08-04T15:13:14.289Z,34.50
2022-08-04T15:15:41.785Z,34.50
2022-08-04T15:18:12.513Z,34.60
2022-08-04T15:20:40.305Z,34.60
2022-08-04T15:23:10.800Z,34.60
2022-08-04T15:25:43.884Z,34.60
2022-08-04T15:28:13.389Z,34.60
2022-08-04T15:30:40.842Z,34.60
2022-08-04T15:33:08.762Z,34.60
2022-08-04T15:35:50.497Z,34.70
2022-08-04T15:38:31.168Z,34.70
2022-08-04T15:41:04.258Z,34.70
2022-08-04T15:43:55.245Z,34.70
2022-08-04T15:46:44.821Z,34.60
2022-08-04T15:49:21.955Z,34.80
2022-08-04T15:52:09.629Z,34.80
2022-08-04T15:54:39.750Z,34.80
2022-08-04T15:57:10.016Z,34.70
2022-08-04T15:59:55.732Z,34.80
2022-08-04T16:02:35.126Z,34.80
2022-08-04T16:05:18.442Z,34.80
2022-08-04T16:07:56.743Z,34.80
2022-08-04T16:10:29.611Z,34.80
2022-08-04T16:13:05.451Z,34.90
2022-08-04T16:15:44.593Z,34.90
2022-08-04T16:18:25.579Z,34.90
2022-08-04T16:20:54.545Z,34.90
2022-08-04T16:23:43.809Z,34.90
2022-08-04T16:26:08.861Z,35.00
2022-08-04T16:28:35.858Z,34.90
2022-08-04T16:31:07.518Z,35.00
2022-08-04T16:33:44.234Z,35.00
2022-08-04T16:36:16.650Z,35.00
2022-08-04T16:39:02.239Z,35.10
2022-08-04T16:41:42.266Z,35.30
2022-08-04T16:44:51.578Z,35.50
2022-08-04T16:47:34.626Z,35.40
2022-08-04T16:50:05.553Z,35.60
2022-08-04T16:52:32.641Z,37.70
2022-08-04T16:54:59.704Z,40.70
2022-08-04T16:57:26.709Z,41.40
2022-08-04T16:59:53.798Z,41.20
2022-08-04T17:02:24.874Z,41.70
2022-08-04T17:05:06.984Z,41.20
2022-08-04T17:08:19.580Z,40.00
2022-08-04T17:10:42.606Z,38.80
2022-08-04T17:14:02.708Z,37.90
2022-08-04T17:16:18.875Z,37.50
2022-08-04T17:18:47.606Z,37.00
2022-08-04T17:21:23.681Z,36.80
2022-08-04T17:24:15.234Z,36.60
2022-08-04T17:26:52.040Z,36.40
2022-08-04T17:29:44.082Z,36.30
2022-08-04T17:32:16.254Z,36.20
2022-08-04T17:34:46.355Z,36.20
2022-08-04T17:40:06.735Z,36.10
2022-08-04T17:42:39.914Z,36.10
2022-08-04T17:45:41.429Z,36.00
2022-08-04T17:47:56.526Z,36.00
2022-08-04T17:50:27.441Z,36.00
2022-08-04T17:53:00.360Z,36.00
2022-08-04T17:55:40.565Z,36.00
2022-08-04T17:58:22.122Z,35.90
2022-08-04T18:01:10.708Z,35.90
2022-08-04T18:03:53.417Z,35.80
2022-08-04T18:06:22.802Z,35.80
2022-08-04T18:08:59.326Z,35.80
2022-08-04T18:11:51.490Z,35.80
2022-08-04T18:14:18.564Z,35.80
2022-08-04T18:16:53.107Z,35.80
2022-08-04T18:19:22.965Z,35.70
2022-08-04T18:24:55.411Z,35.60
2022-08-04T18:27:24.871Z,35.50
2022-08-04T18:30:31.229Z,35.40
2022-08-04T18:33:04.247Z,35.30
2022-08-04T18:36:31.384Z,35.10
2022-08-04T18:38:23.501Z,34.80
2022-08-04T18:40:54.483Z,34.90
2022-08-04T18:43:28.260Z,34.80
2022-08-04T18:45:59.349Z,34.70
2022-08-04T18:48:35.985Z,34.60
2022-08-04T18:51:22.299Z,34.60
2022-08-04T18:53:54.923Z,34.40
2022-08-04T18:56:29.710Z,34.20
2022-08-04T18:59:00.405Z,34.00
2022-08-04T19:01:30.080Z,33.90
2022-08-04T19:04:32.945Z,33.70
2022-08-04T19:07:23.342Z,33.60
2022-08-04T19:09:52.153Z,33.50
2022-08-04T19:12:26.874Z,33.40
2022-08-04T19:15:11.094Z,33.30
2022-08-04T19:17:53.856Z,33.20
2022-08-04T19:20:26.371Z,33.10
2022-08-04T19:24:29.221Z,33.10
2022-08-04T19:26:01.540Z,33.00
2022-08-04T19:28:31.801Z,32.90
2022-08-04T19:31:02.214Z,32.90
2022-08-04T19:33:55.304Z,32.70
2022-08-04T19:36:17.324Z,32.70
2022-08-04T19:38:44.738Z,32.60
2022-08-04T19:43:58.916Z,32.50
2022-08-04T19:46:28.651Z,32.30
2022-08-04T19:48:58.966Z,32.20
2022-08-04T19:51:28.412Z,32.10
2022-08-04T19:54:02.962Z,32.00
2022-08-04T19:56:40.858Z,32.10
2022-08-04T19:59:09.140Z,32.00
2022-08-04T20:01:44.021Z,32.00
2022-08-04T20:04:13.343Z,31.90
2022-08-04T20:06:40.677Z,31.80
2022-08-04T20:09:24.575Z,31.60
2022-08-04T20:11:54.257Z,31.50
2022-08-04T20:14:31.374Z,31.50
2022-08-04T20:17:10.125Z,31.40
2022-08-04T20:19:37.990Z,31.40
2022-08-04T20:22:05.267Z,31.30
2022-08-04T20:25:00.441Z,31.30
2022-08-04T20:27:51.705Z,31.20
2022-08-04T20:30:25.302Z,31.20
2022-08-04T20:32:55.689Z,31.10
2022-08-04T20:35:28.517Z,31.00
2022-08-04T20:38:00.041Z,31.00
2022-08-04T20:40:28.693Z,30.90
2022-08-04T20:42:57.734Z,30.80
2022-08-04T20:45:56.308Z,30.60
2022-08-04T20:48:12.506Z,30.50
2022-08-04T20:50:39.898Z,30.40
2022-08-04T20:55:55.401Z,30.20
2022-08-04T20:58:27.701Z,30.10
2022-08-04T21:00:55.451Z,30.00
2022-08-04T21:03:49.584Z,29.90
2022-08-04T21:06:09.432Z,29.70
2022-08-04T21:08:37.367Z,29.60
2022-08-04T21:11:06.837Z,29.60
2022-08-04T21:13:51.849Z,29.60
2022-08-04T21:16:55.571Z,29.50
2022-08-04T21:19:13.025Z,29.50
2022-08-04T21:21:41.040Z,29.20
2022-08-04T21:24:09.692Z,29.10
2022-08-04T21:26:37.393Z,29.00
2022-08-04T21:29:04.831Z,28.90
2022-08-04T21:31:36.793Z,29.00
2022-08-04T21:34:38.549Z,28.90
2022-08-04T21:37:04.490Z,28.80
2022-08-04T21:39:32.311Z,28.80
2022-08-04T21:44:46.667Z,28.80
2022-08-04T21:47:22.432Z,28.70
2022-08-04T21:49:56.357Z,28.60
2022-08-04T21:52:24.625Z,28.60
2022-08-04T21:54:54.445Z,28.50
2022-08-04T21:57:24.675Z,28.50
2022-08-04T21:59:52.479Z,28.50
2022-08-04T22:02:19.640Z,28.50
2022-08-04T22:04:48.271Z,28.50
2022-08-04T22:07:16.554Z,28.40
2022-08-04T22:10:00.196Z,28.50
2022-08-04T22:12:29.879Z,28.50
2022-08-04T22:14:59.394Z,28.40
2022-08-04T22:17:34.991Z,28.40
2022-08-04T22:20:03.133Z,28.40
2022-08-04T22:22:33.371Z,28.30
2022-08-04T22:25:01.982Z,28.30
2022-08-04T22:27:58.250Z,28.20
2022-08-04T22:30:33.013Z,28.20
2022-08-04T22:33:04.665Z,28.20
2022-08-04T22:35:43.913Z,28.10
2022-08-04T22:38:24.545Z,28.10
2022-08-04T22:41:08.180Z,28.20
2022-08-04T22:43:36.269Z,28.20
2022-08-04T22:46:06.635Z,28.20
2022-08-04T22:48:37.390Z,28.20
2022-08-04T22:51:06.065Z,28.10
2022-08-04T22:53:34.530Z,28.10
2022-08-04T22:56:09.632Z,28.00
2022-08-04T22:58:51.262Z,27.90
